createdAt,value
2023-03-27T00:01:13.492Z,4.47
2023-03-27T00:03:47.571Z,4.49
2023-03-27T00:06:18.350Z,4.48
2023-03-27T00:08:47.074Z,4.47
2023-03-27T00:11:15.387Z,4.47
2023-03-27T00:13:50.398Z,4.45
2023-03-27T00:16:21.951Z,4.45
2023-03-27T00:18:48.883Z,4.44
2023-03-27T00:24:09.852Z,4.43
2023-03-27T00:26:40.291Z,4.43
2023-03-27T00:29:08.063Z,4.40
2023-03-27T00:34:30.225Z,4.36
2023-03-27T00:36:58.221Z,4.34
2023-03-27T00:39:24.872Z,4.34
2023-03-27T00:44:46.023Z,4.34
2023-03-27T00:47:14.551Z,4.34
2023-03-27T00:49:41.501Z,4.33
2023-03-27T00:52:40.960Z,4.32
2023-03-27T00:55:14.239Z,4.32
2023-03-27T00:57:46.567Z,4.32
2023-03-27T01:00:14.560Z,4.31
2023-03-27T01:02:43.595Z,4.30
2023-03-27T01:05:11.608Z,4.29
2023-03-27T01:07:40.411Z,4.28
2023-03-27T01:10:08.736Z,4.26
2023-03-27T01:13:22.225Z,4.23
2023-03-27T01:16:11.075Z,4.20
2023-03-27T01:18:53.452Z,4.17
2023-03-27T01:21:57.552Z,4.15
2023-03-27T01:24:46.119Z,4.13
2023-03-27T01:27:23.265Z,4.12
2023-03-27T01:30:01.792Z,4.13
2023-03-27T01:32:34.275Z,4.13
2023-03-27T01:35:20.192Z,4.13
2023-03-27T01:38:02.953Z,4.13
2023-03-27T01:40:37.075Z,4.11
2023-03-27T01:43:17.973Z,4.12
2023-03-27T01:45:52.636Z,4.12
2023-03-27T01:48:24.183Z,4.13
2023-03-27T01:51:04.490Z,4.11
2023-03-27T01:53:52.262Z,4.10
2023-03-27T01:56:26.494Z,4.08
2023-03-27T01:59:04.182Z,4.04
2023-03-27T02:01:44.566Z,4.03
2023-03-27T02:04:17.759Z,4.02
2023-03-27T02:06:57.212Z,4.02
2023-03-27T02:09:31.848Z,4.03
2023-03-27T02:12:07.534Z,4.01
2023-03-27T02:14:42.976Z,3.98
2023-03-27T02:17:14.113Z,3.96
2023-03-27T02:19:49.535Z,3.94
2023-03-27T02:22:16.373Z,3.90
2023-03-27T02:24:46.344Z,3.83
2023-03-27T02:27:22.563Z,3.81
2023-03-27T02:30:11.799Z,3.77
2023-03-27T02:32:58.355Z,3.72
2023-03-27T02:35:37.327Z,3.65
2023-03-27T02:38:15.691Z,3.59
2023-03-27T02:40:55.968Z,3.55
2023-03-27T02:43:43.754Z,3.50
2023-03-27T02:46:16.124Z,3.47
2023-03-27T02:48:49.102Z,3.46
2023-03-27T02:55:20.923Z,3.35
2023-03-27T02:57:53.048Z,3.32
2023-03-27T03:00:28.369Z,3.29
2023-03-27T03:03:06.078Z,3.28
2023-03-27T03:05:32.868Z,3.25
2023-03-27T03:07:59.683Z,3.23
2023-03-27T03:10:27.290Z,3.22
2023-03-27T03:12:54.164Z,3.24
2023-03-27T03:15:20.959Z,3.26
2023-03-27T03:17:48.146Z,3.28
2023-03-27T03:20:16.807Z,3.28
2023-03-27T03:22:43.709Z,3.28
2023-03-27T03:25:13.419Z,3.27
2023-03-27T03:27:41.418Z,3.26
2023-03-27T03:30:09.741Z,3.22
2023-03-27T03:35:30.376Z,3.17
2023-03-27T03:37:57.847Z,3.14
2023-03-27T03:40:24.518Z,3.10
2023-03-27T03:42:52.682Z,3.09
2023-03-27T03:45:20.159Z,3.07
2023-03-27T03:47:47.548Z,3.01
2023-03-27T03:50:14.232Z,2.98
2023-03-27T03:52:41.767Z,2.96
2023-03-27T03:55:12.007Z,2.92
2023-03-27T03:57:38.875Z,2.87
2023-03-27T04:00:11.344Z,2.84
2023-03-27T04:02:38.793Z,2.80
2023-03-27T04:05:08.825Z,2.78
2023-03-27T04:07:36.294Z,2.74
2023-03-27T04:10:04.007Z,2.70
2023-03-27T04:12:30.600Z,2.68
2023-03-27T04:14:57.469Z,2.66
2023-03-27T04:17:26.422Z,2.64
2023-03-27T04:19:57.474Z,2.63
2023-03-27T04:22:24.133Z,2.63
2023-03-27T04:24:50.843Z,2.62
2023-03-27T04:27:18.002Z,2.63
2023-03-27T04:29:47.498Z,2.63
2023-03-27T04:32:19.352Z,2.61
2023-03-27T04:34:48.636Z,2.60
2023-03-27T04:37:15.420Z,2.56
2023-03-27T04:39:46.161Z,2.51
2023-03-27T04:42:16.643Z,2.47
2023-03-27T04:44:46.083Z,2.42
2023-03-27T04:47:12.718Z,2.37
2023-03-27T04:49:40.713Z,2.35
2023-03-27T04:52:07.945Z,2.33
2023-03-27T04:54:35.786Z,2.32
2023-03-27T04:57:03.726Z,2.30
2023-03-27T04:59:31.994Z,2.32
2023-03-27T05:02:00.012Z,2.33
2023-03-27T05:04:26.690Z,2.32
2023-03-27T05:06:54.398Z,2.33
2023-03-27T05:09:22.082Z,2.32
2023-03-27T05:11:50.389Z,2.33
2023-03-27T05:14:18.980Z,2.32
2023-03-27T05:16:46.312Z,2.32
2023-03-27T05:19:13.260Z,2.32
2023-03-27T05:24:33.948Z,2.32
2023-03-27T05:27:00.547Z,2.31
2023-03-27T05:29:27.255Z,2.32
2023-03-27T05:31:54.010Z,2.32
2023-03-27T05:34:20.915Z,2.30
2023-03-27T05:36:47.817Z,2.29
2023-03-27T05:39:15.399Z,2.29
2023-03-27T05:41:41.877Z,2.26
2023-03-27T05:44:08.620Z,2.25
2023-03-27T05:46:35.214Z,2.23
2023-03-27T05:49:02.487Z,2.21
2023-03-27T05:51:29.365Z,2.19
2023-03-27T05:53:58.510Z,2.18
2023-03-27T05:56:25.159Z,2.18
2023-03-27T05:58:52.287Z,2.18
2023-03-27T06:01:18.914Z,2.17
2023-03-27T06:03:45.700Z,2.17
2023-03-27T06:06:12.909Z,2.19
2023-03-27T06:08:39.603Z,2.19
2023-03-27T06:11:11.196Z,2.21
2023-03-27T06:13:38.067Z,2.21
2023-03-27T06:16:06.112Z,2.24
2023-03-27T06:18:33.932Z,2.26
2023-03-27T06:21:00.657Z,2.29
2023-03-27T06:23:27.389Z,2.29
2023-03-27T06:28:48.913Z,2.37
2023-03-27T06:31:17.782Z,2.38
2023-03-27T06:33:44.576Z,2.42
2023-03-27T06:36:12.372Z,2.50
2023-03-27T06:38:39.258Z,2.58
2023-03-27T06:41:06.123Z,2.69
2023-03-27T06:43:32.836Z,2.87
2023-03-27T06:48:54.419Z,3.33
2023-03-27T06:51:23.129Z,3.49
2023-03-27T06:53:49.688Z,3.62
2023-03-27T06:56:16.815Z,3.69
2023-03-27T06:58:43.409Z,3.84
2023-03-27T07:04:05.348Z,4.07
2023-03-27T07:06:32.013Z,4.13
2023-03-27T07:08:58.779Z,4.25
2023-03-27T07:11:25.660Z,4.34
2023-03-27T07:13:52.403Z,4.40
2023-03-27T07:19:13.170Z,4.53
2023-03-27T07:24:33.965Z,4.76
2023-03-27T07:27:00.817Z,4.85
2023-03-27T07:29:27.803Z,4.95
2023-03-27T07:31:57.881Z,5.03
2023-03-27T07:34:25.813Z,5.05
2023-03-27T07:36:52.721Z,5.17
2023-03-27T07:39:19.278Z,5.19
2023-03-27T07:41:51.032Z,5.16
2023-03-27T07:44:18.688Z,5.14
2023-03-27T07:46:46.998Z,5.28
2023-03-27T07:49:14.245Z,5.44
2023-03-27T07:51:41.022Z,5.42
2023-03-27T07:54:07.912Z,5.54
2023-03-27T07:56:34.947Z,5.60
2023-03-27T07:59:31.083Z,5.69
2023-03-27T08:01:57.742Z,5.69
2023-03-27T08:04:24.404Z,5.75
2023-03-27T08:06:51.781Z,5.80
2023-03-27T08:09:18.398Z,5.82
2023-03-27T08:11:45.047Z,5.80
2023-03-27T08:14:11.677Z,6.04
2023-03-27T08:16:38.574Z,5.90
2023-03-27T08:19:06.317Z,6.04
2023-03-27T08:21:34.316Z,6.06
2023-03-27T08:24:04.789Z,5.88
2023-03-27T08:26:32.241Z,5.91
2023-03-27T08:28:59.535Z,5.96
2023-03-27T08:31:29.355Z,6.01
2023-03-27T08:33:56.330Z,6.13
2023-03-27T08:36:23.238Z,6.04
2023-03-27T08:38:49.812Z,5.99
2023-03-27T08:41:37.330Z,6.07
2023-03-27T08:44:08.013Z,6.09
2023-03-27T08:46:40.908Z,6.12
2023-03-27T08:49:16.801Z,6.28
2023-03-27T08:51:52.632Z,6.34
2023-03-27T08:54:21.655Z,6.28
2023-03-27T08:56:49.124Z,6.38
2023-03-27T08:59:24.595Z,6.44
2023-03-27T09:02:15.913Z,6.41
2023-03-27T09:05:16.769Z,6.29
2023-03-27T09:08:13.807Z,6.47
2023-03-27T09:10:49.737Z,6.45
2023-03-27T09:13:21.042Z,6.46
2023-03-27T09:16:16.478Z,6.64
2023-03-27T09:18:54.303Z,6.67
2023-03-27T09:21:31.177Z,6.85
2023-03-27T09:24:01.353Z,7.00
2023-03-27T09:26:36.062Z,7.04
2023-03-27T09:29:12.743Z,6.22
2023-03-27T09:31:50.452Z,5.76
2023-03-27T09:34:26.617Z,5.53
2023-03-27T09:36:54.708Z,4.73
2023-03-27T09:39:27.702Z,4.85
2023-03-27T09:42:06.842Z,4.41
2023-03-27T09:44:40.272Z,4.48
2023-03-27T09:47:14.585Z,4.45
2023-03-27T09:49:48.032Z,4.34
2023-03-27T09:56:50.078Z,4.44
2023-03-27T09:59:28.872Z,4.59
2023-03-27T10:01:58.093Z,4.74
2023-03-27T10:04:27.774Z,4.86
2023-03-27T10:07:08.289Z,4.97
2023-03-27T10:09:37.339Z,5.25
2023-03-27T10:17:53.398Z,5.53
2023-03-27T10:20:21.557Z,5.74
2023-03-27T10:22:54.490Z,5.81
2023-03-27T10:25:34.207Z,6.12
2023-03-27T10:28:08.631Z,6.18
2023-03-27T10:33:35.317Z,6.37
2023-03-27T10:36:09.247Z,6.52
2023-03-27T10:38:38.560Z,6.82
2023-03-27T10:41:17.611Z,6.81
2023-03-27T10:43:57.656Z,6.93
2023-03-27T10:46:27.445Z,6.95
2023-03-27T10:49:30.438Z,7.12
2023-03-27T10:52:09.912Z,6.76
2023-03-27T10:55:01.549Z,6.74
2023-03-27T10:57:33.865Z,6.73
2023-03-27T11:00:21.323Z,6.92
2023-03-27T11:03:00.492Z,7.02
2023-03-27T11:05:31.499Z,7.02
2023-03-27T11:08:08.969Z,7.26
2023-03-27T11:10:41.865Z,7.44
2023-03-27T11:13:21.373Z,7.55
2023-03-27T11:16:15.992Z,7.37
2023-03-27T11:18:49.637Z,7.60
2023-03-27T11:21:32.012Z,7.80
2023-03-27T11:24:04.203Z,8.03
2023-03-27T11:26:36.780Z,8.05
2023-03-27T11:29:17.121Z,7.75
2023-03-27T11:31:46.591Z,7.64
2023-03-27T11:34:28.473Z,7.29
2023-03-27T11:37:01.626Z,6.83
2023-03-27T11:39:45.487Z,6.42
2023-03-27T11:42:21.416Z,5.77
2023-03-27T11:44:48.825Z,5.42
2023-03-27T11:47:33.444Z,5.28
2023-03-27T11:50:06.052Z,5.18
2023-03-27T11:52:40.594Z,5.23
2023-03-27T11:55:07.273Z,5.38
2023-03-27T11:57:56.902Z,5.62
2023-03-27T12:00:45.919Z,5.87
2023-03-27T12:03:33.752Z,6.18
2023-03-27T12:06:14.724Z,6.36
2023-03-27T12:09:11.835Z,6.60
2023-03-27T12:11:45.030Z,6.72
2023-03-27T12:14:40.438Z,7.00
2023-03-27T12:17:24.890Z,7.20
2023-03-27T12:19:54.522Z,7.36
2023-03-27T12:22:36.931Z,7.49
2023-03-27T12:25:23.851Z,7.21
2023-03-27T12:28:02.460Z,6.96
2023-03-27T12:34:01.467Z,6.72
2023-03-27T12:36:34.646Z,6.53
2023-03-27T12:39:01.693Z,6.53
2023-03-27T12:44:31.569Z,6.41
2023-03-27T12:47:09.037Z,6.18
2023-03-27T12:49:47.533Z,6.36
2023-03-27T12:53:26.186Z,6.21
2023-03-27T12:56:29.728Z,6.31
2023-03-27T12:58:56.764Z,6.44
2023-03-27T13:05:26.939Z,6.82
2023-03-27T13:07:57.293Z,6.94
2023-03-27T13:14:18.019Z,7.21
2023-03-27T13:16:59.767Z,7.27
2023-03-27T13:19:35.084Z,7.11
2023-03-27T13:22:27.929Z,7.33
2023-03-27T13:25:19.111Z,7.53
2023-03-27T13:27:48.400Z,7.58
2023-03-27T13:30:47.741Z,7.85
2023-03-27T13:33:29.484Z,7.30
2023-03-27T13:36:00.279Z,7.06
2023-03-27T13:38:53.063Z,7.18
2023-03-27T13:41:44.148Z,7.09
2023-03-27T13:44:17.045Z,7.09
2023-03-27T13:46:52.071Z,7.03
2023-03-27T13:49:58.116Z,7.14
2023-03-27T13:52:54.037Z,7.05
2023-03-27T13:58:47.371Z,7.21
2023-03-27T14:01:34.354Z,7.27
2023-03-27T14:04:10.044Z,7.28
2023-03-27T14:06:48.815Z,7.49
2023-03-27T14:09:37.631Z,7.56
2023-03-27T14:12:16.755Z,7.74
2023-03-27T14:14:51.417Z,7.81
2023-03-27T14:17:48.640Z,7.98
2023-03-27T14:20:27.611Z,8.32
2023-03-27T14:23:13.206Z,8.25
2023-03-27T14:25:47.446Z,8.45
2023-03-27T14:28:51.562Z,8.06
2023-03-27T14:31:19.601Z,7.96
2023-03-27T14:34:03.337Z,8.05
2023-03-27T14:36:34.081Z,8.29
2023-03-27T14:39:02.912Z,8.21
2023-03-27T14:41:36.166Z,8.20
2023-03-27T14:44:04.748Z,7.97
2023-03-27T14:46:32.849Z,8.09
2023-03-27T14:48:59.883Z,8.21
2023-03-27T14:51:37.144Z,8.14
2023-03-27T14:54:08.819Z,8.09
2023-03-27T14:56:41.591Z,8.22
2023-03-27T14:59:19.278Z,8.34
2023-03-27T15:01:48.813Z,8.49
2023-03-27T15:04:15.829Z,8.34
2023-03-27T15:06:42.737Z,7.97
2023-03-27T15:09:19.297Z,7.55
2023-03-27T15:11:55.262Z,7.25
2023-03-27T15:14:30.361Z,7.34
2023-03-27T15:17:06.945Z,7.43
2023-03-27T15:19:45.882Z,7.55
2023-03-27T15:22:21.082Z,7.87
2023-03-27T15:24:55.289Z,7.86
2023-03-27T15:27:26.899Z,7.78
2023-03-27T15:30:00.445Z,7.67
2023-03-27T15:32:42.525Z,7.79
2023-03-27T15:35:18.120Z,7.83
2023-03-27T15:37:45.354Z,7.90
2023-03-27T15:40:24.744Z,7.82
2023-03-27T15:42:51.566Z,7.85
2023-03-27T15:45:22.951Z,7.88
2023-03-27T15:48:16.822Z,7.84
2023-03-27T15:50:58.188Z,7.84
2023-03-27T15:53:34.138Z,7.83
2023-03-27T15:59:02.077Z,7.73
2023-03-27T16:01:33.444Z,7.53
2023-03-27T16:04:05.822Z,7.60
2023-03-27T16:06:39.870Z,7.66
2023-03-27T16:09:18.080Z,7.46
2023-03-27T16:11:47.691Z,7.45
2023-03-27T16:14:44.107Z,7.36
2023-03-27T16:17:20.844Z,7.40
2023-03-27T16:19:59.612Z,7.38
2023-03-27T16:22:33.068Z,7.31
2023-03-27T16:25:01.581Z,7.34
2023-03-27T16:27:35.965Z,7.35
2023-03-27T16:30:03.861Z,7.43
2023-03-27T16:32:30.628Z,7.36
2023-03-27T16:34:57.510Z,7.27
2023-03-27T16:37:26.962Z,7.34
2023-03-27T16:39:54.861Z,7.20
2023-03-27T16:42:26.007Z,7.32
2023-03-27T16:44:53.109Z,7.24
2023-03-27T16:47:20.642Z,7.23
2023-03-27T16:49:56.222Z,7.23
2023-03-27T16:52:27.360Z,7.16
2023-03-27T16:54:55.162Z,7.20
2023-03-27T16:57:21.714Z,7.21
2023-03-27T16:59:48.284Z,7.28
2023-03-27T17:02:15.020Z,7.19
2023-03-27T17:04:44.127Z,7.12
2023-03-27T17:07:10.968Z,6.92
2023-03-27T17:09:38.071Z,6.55
2023-03-27T17:12:04.764Z,6.45
2023-03-27T17:14:31.439Z,6.45
2023-03-27T17:16:58.065Z,6.43
2023-03-27T17:19:24.753Z,6.40
2023-03-27T17:21:53.014Z,6.27
2023-03-27T17:24:19.970Z,6.20
2023-03-27T17:26:46.673Z,6.18
2023-03-27T17:29:13.563Z,6.20
2023-03-27T17:31:40.411Z,6.26
2023-03-27T17:34:10.260Z,6.19
2023-03-27T17:36:44.917Z,6.20
2023-03-27T17:39:16.335Z,6.26
2023-03-27T17:41:42.951Z,6.25
2023-03-27T17:44:11.756Z,6.40
2023-03-27T17:46:38.460Z,6.40
2023-03-27T17:49:05.137Z,6.42
2023-03-27T17:51:31.768Z,6.31
2023-03-27T17:53:58.983Z,6.30
2023-03-27T17:56:25.676Z,6.36
2023-03-27T17:58:53.405Z,6.32
2023-03-27T18:01:21.779Z,6.37
2023-03-27T18:03:49.081Z,6.32
2023-03-27T18:06:17.727Z,6.35
2023-03-27T18:08:45.742Z,6.32
2023-03-27T18:11:15.746Z,6.23
2023-03-27T18:13:44.918Z,6.20
2023-03-27T18:16:12.232Z,6.29
2023-03-27T18:18:39.417Z,6.30
2023-03-27T18:21:06.678Z,6.26
2023-03-27T18:23:34.908Z,6.23
2023-03-27T18:26:07.293Z,6.15
2023-03-27T18:28:34.786Z,6.20
2023-03-27T18:31:05.411Z,6.11
2023-03-27T18:33:32.635Z,6.04
2023-03-27T18:35:59.696Z,6.04
2023-03-27T18:38:28.001Z,5.99
2023-03-27T18:40:57.199Z,5.90
2023-03-27T18:43:23.933Z,5.87
2023-03-27T18:46:02.299Z,5.93
2023-03-27T18:48:31.061Z,5.95
2023-03-27T18:54:28.201Z,5.89
2023-03-27T18:56:54.876Z,5.93
2023-03-27T18:59:22.660Z,5.81
2023-03-27T19:01:49.341Z,5.84
2023-03-27T19:04:17.250Z,5.85
2023-03-27T19:06:44.167Z,5.82
2023-03-27T19:09:10.753Z,5.81
2023-03-27T19:11:38.274Z,5.61
2023-03-27T19:14:05.221Z,5.71
2023-03-27T19:16:31.924Z,5.61
2023-03-27T19:18:58.607Z,5.60
2023-03-27T19:21:25.322Z,5.50
2023-03-27T19:23:51.888Z,5.43
2023-03-27T19:26:19.875Z,5.43
2023-03-27T19:28:49.379Z,5.38
2023-03-27T19:31:17.031Z,5.35
2023-03-27T19:33:43.923Z,5.39
2023-03-27T19:36:10.542Z,5.34
2023-03-27T19:38:38.662Z,5.35
2023-03-27T19:41:10.450Z,5.38
2023-03-27T19:43:37.804Z,5.36
2023-03-27T19:46:15.623Z,5.30
2023-03-27T19:48:44.661Z,5.23
2023-03-27T19:51:11.586Z,5.25
2023-03-27T19:53:40.468Z,5.24
2023-03-27T19:56:07.463Z,5.23
2023-03-27T19:58:34.224Z,5.22
2023-03-27T20:01:00.959Z,5.20
2023-03-27T20:03:29.529Z,5.18
2023-03-27T20:06:07.598Z,5.13
2023-03-27T20:08:38.393Z,5.06
2023-03-27T20:11:06.971Z,4.98
2023-03-27T20:13:42.478Z,4.90
2023-03-27T20:16:16.401Z,4.76
2023-03-27T20:18:43.319Z,4.62
2023-03-27T20:21:13.857Z,4.55
2023-03-27T20:23:41.989Z,4.52
2023-03-27T20:26:09.329Z,4.49
2023-03-27T20:28:36.966Z,4.43
2023-03-27T20:31:06.822Z,4.40
2023-03-27T20:33:33.369Z,4.34
2023-03-27T20:36:00.159Z,4.29
2023-03-27T20:38:31.600Z,4.22
2023-03-27T20:41:03.649Z,4.18
2023-03-27T20:43:37.370Z,4.14
2023-03-27T20:46:04.827Z,4.09
2023-03-27T20:48:40.329Z,4.06
2023-03-27T20:51:14.899Z,4.07
2023-03-27T20:53:46.473Z,4.04
2023-03-27T20:56:14.394Z,3.98
2023-03-27T20:58:42.022Z,3.93
2023-03-27T21:01:10.815Z,3.90
2023-03-27T21:03:46.440Z,3.85
2023-03-27T21:06:19.014Z,3.82
2023-03-27T21:08:46.778Z,3.78
2023-03-27T21:11:14.031Z,3.72
2023-03-27T21:13:40.970Z,3.67
2023-03-27T21:16:08.502Z,3.62
2023-03-27T21:18:35.515Z,3.58
2023-03-27T21:21:02.429Z,3.53
2023-03-27T21:23:29.744Z,3.49
2023-03-27T21:25:57.711Z,3.43
2023-03-27T21:28:24.515Z,3.36
2023-03-27T21:30:51.280Z,3.30
2023-03-27T21:33:18.228Z,3.24
2023-03-27T21:35:50.578Z,3.18
2023-03-27T21:38:18.419Z,3.12
2023-03-27T21:40:48.279Z,3.07
2023-03-27T21:43:15.790Z,3.04
2023-03-27T21:45:42.408Z,3.00
2023-03-27T21:48:10.558Z,2.97
2023-03-27T21:50:37.409Z,2.93
2023-03-27T21:53:04.068Z,2.90
2023-03-27T21:55:30.994Z,2.85
2023-03-27T21:57:57.553Z,2.81
2023-03-27T22:00:24.104Z,2.77
2023-03-27T22:02:50.855Z,2.75
2023-03-27T22:05:17.710Z,2.69
2023-03-27T22:07:45.464Z,2.64
2023-03-27T22:10:13.004Z,2.63
2023-03-27T22:12:39.831Z,2.61
2023-03-27T22:15:07.397Z,2.59
2023-03-27T22:17:37.953Z,2.56
2023-03-27T22:20:05.990Z,2.56
2023-03-27T22:22:35.012Z,2.55
2023-03-27T22:25:01.553Z,2.55
2023-03-27T22:27:28.445Z,2.54
2023-03-27T22:29:55.054Z,2.53
2023-03-27T22:32:22.762Z,2.50
2023-03-27T22:34:50.819Z,2.49
2023-03-27T22:37:19.762Z,2.49
2023-03-27T22:39:47.027Z,2.45
2023-03-27T22:42:13.653Z,2.43
2023-03-27T22:44:40.876Z,2.41
2023-03-27T22:47:07.492Z,2.36
2023-03-27T22:49:35.996Z,2.30
2023-03-27T22:52:03.888Z,2.28
2023-03-27T22:54:30.655Z,2.25
2023-03-27T22:56:59.242Z,2.22
2023-03-27T22:59:25.907Z,2.19
2023-03-27T23:01:52.835Z,2.17
2023-03-27T23:04:19.627Z,2.15
2023-03-27T23:06:46.565Z,2.13
2023-03-27T23:09:13.245Z,2.14
2023-03-27T23:11:39.809Z,2.14
2023-03-27T23:14:06.847Z,2.13
2023-03-27T23:16:33.704Z,2.11
2023-03-27T23:19:00.442Z,2.09
2023-03-27T23:21:27.024Z,2.07
2023-03-27T23:23:53.646Z,2.04
2023-03-27T23:26:21.217Z,2.02
2023-03-27T23:28:47.897Z,1.99
2023-03-27T23:31:18.887Z,1.95
2023-03-27T23:33:49.079Z,1.93
2023-03-27T23:36:18.445Z,1.90
2023-03-27T23:38:45.669Z,1.88
2023-03-27T23:44:08.445Z,1.82
2023-03-27T23:46:35.304Z,1.80
2023-03-27T23:49:01.856Z,1.79
2023-03-27T23:51:28.567Z,1.77
2023-03-27T23:53:55.374Z,1.75
2023-03-27T23:56:22.048Z,1.72
2023-03-27T23:58:48.613Z,1.68
